Terminal Aerodrome Forecast
Issued by NWS

Home | Current Version | Previous Version | Text Only | Print | Product List | Glossary On
Versions: 1 2 3 4 5 6 7 8 9 10 11 12 13 14 15 16 17 18 19 20 21 22 23 24 25 26 27 28 29 30 31 32 33 34
751
FTUS41 KOKX 291139
TAFGON
TAF
KGON 291139Z 2912/3012 35008KT P6SM SCT015 BKN025
     FM291300 34010G17KT P6SM SCT030 SCT250
     FM291600 34013G20KT P6SM SCT040 SCT250
     FM300000 35010KT P6SM FEW250
     FM300600 35006KT P6SM FEW250=

USA.gov is the U.S. government's official web portal to all federal, state and local government web resources and services.